createdAt,value
2018-06-29T00:00:02.732Z,13.30
2018-06-29T00:02:31.260Z,13.30
2018-06-29T00:04:59.795Z,13.20
2018-06-29T00:07:28.274Z,13.10
2018-06-29T00:09:56.836Z,13.10
2018-06-29T00:12:25.341Z,13.10
2018-06-29T00:14:53.893Z,13.10
2018-06-29T00:17:22.376Z,13.00
2018-06-29T00:19:50.880Z,13.00
2018-06-29T00:22:19.361Z,13.00
2018-06-29T00:24:47.893Z,12.90
2018-06-29T00:27:16.381Z,12.90
2018-06-29T00:32:13.081Z,12.90
2018-06-29T00:34:41.562Z,12.80
2018-06-29T00:37:10.156Z,12.80
2018-06-29T00:39:38.699Z,12.70
2018-06-29T00:42:07.384Z,12.70
2018-06-29T00:44:35.950Z,12.70
2018-06-29T00:49:32.667Z,12.70
2018-06-29T00:52:01.229Z,12.70
2018-06-29T00:54:29.722Z,12.70
2018-06-29T00:56:58.213Z,12.70
2018-06-29T00:59:26.729Z,12.70
2018-06-29T01:01:55.749Z,12.70
2018-06-29T01:04:24.265Z,12.80
2018-06-29T01:06:52.809Z,12.80
2018-06-29T01:09:21.333Z,12.80
2018-06-29T01:11:49.844Z,12.80
2018-06-29T01:14:18.384Z,12.80
2018-06-29T01:16:46.878Z,12.80
2018-06-29T01:19:15.399Z,12.80
2018-06-29T01:21:43.898Z,12.80
2018-06-29T01:24:12.468Z,12.80
2018-06-29T01:26:41.169Z,12.80
2018-06-29T01:31:37.960Z,12.70
2018-06-29T01:34:06.503Z,12.80
2018-06-29T01:36:35.054Z,12.70
2018-06-29T01:39:04.139Z,12.70
2018-06-29T01:41:32.774Z,12.70
2018-06-29T01:44:01.184Z,12.70
2018-06-29T01:46:29.691Z,12.70
2018-06-29T01:48:58.174Z,12.70
2018-06-29T01:51:26.900Z,12.70
2018-06-29T01:53:55.400Z,12.70
2018-06-29T01:56:23.965Z,12.70
2018-06-29T01:58:52.621Z,12.70
2018-06-29T02:01:21.250Z,12.70
2018-06-29T02:06:17.996Z,12.60
2018-06-29T02:08:46.567Z,12.60
2018-06-29T02:11:15.101Z,12.50
2018-06-29T02:13:43.597Z,12.60
2018-06-29T02:16:12.133Z,12.60
2018-06-29T02:18:40.626Z,12.60
2018-06-29T02:21:09.176Z,12.50
2018-06-29T02:23:37.732Z,12.50
2018-06-29T02:26:06.261Z,12.50
2018-06-29T02:28:34.801Z,12.50
2018-06-29T02:31:03.401Z,12.50
2018-06-29T02:33:31.938Z,12.50
2018-06-29T02:36:00.501Z,12.40
2018-06-29T02:38:29.008Z,12.40
2018-06-29T02:40:57.483Z,12.40
2018-06-29T02:43:26.017Z,12.40
2018-06-29T02:45:54.543Z,12.40
2018-06-29T02:50:51.251Z,12.40
2018-06-29T02:53:19.785Z,12.40
2018-06-29T02:58:16.529Z,12.50
2018-06-29T03:00:45.025Z,12.40
2018-06-29T03:03:13.577Z,12.40
2018-06-29T03:05:42.076Z,12.40
2018-06-29T03:08:10.622Z,12.30
2018-06-29T03:10:39.152Z,12.30
2018-06-29T03:13:08.021Z,12.30
2018-06-29T03:15:36.524Z,12.20
2018-06-29T03:18:05.181Z,12.20
2018-06-29T03:20:33.760Z,12.10
2018-06-29T03:23:02.253Z,12.10
2018-06-29T03:25:30.788Z,12.00
2018-06-29T03:27:59.335Z,12.00
2018-06-29T03:30:27.813Z,12.00
2018-06-29T03:32:56.402Z,12.00
2018-06-29T03:35:24.921Z,12.00
2018-06-29T03:37:53.657Z,11.90
2018-06-29T03:40:22.373Z,11.90
2018-06-29T03:42:51.056Z,11.90
2018-06-29T03:45:19.752Z,11.90
2018-06-29T03:47:48.290Z,11.90
2018-06-29T03:50:16.786Z,11.90
2018-06-29T03:52:45.254Z,11.90
2018-06-29T03:55:13.848Z,11.90
2018-06-29T03:57:42.396Z,11.90
2018-06-29T04:00:11.212Z,11.90
2018-06-29T04:02:39.780Z,11.90
2018-06-29T04:05:08.590Z,12.00
2018-06-29T04:07:37.108Z,12.00
2018-06-29T04:10:05.676Z,12.00
2018-06-29T04:12:34.213Z,12.10
2018-06-29T04:15:02.756Z,12.10
2018-06-29T04:17:31.281Z,12.20
2018-06-29T04:19:59.810Z,12.20
2018-06-29T04:22:28.291Z,12.30
2018-06-29T04:25:00.172Z,12.30
2018-06-29T04:29:56.935Z,12.50
2018-06-29T04:32:25.457Z,12.50
2018-06-29T04:34:54.048Z,12.60
2018-06-29T04:37:22.568Z,12.60
2018-06-29T04:39:51.494Z,12.60
2018-06-29T04:42:20.017Z,12.70
2018-06-29T04:44:48.565Z,12.80
2018-06-29T04:47:17.324Z,12.90
2018-06-29T04:49:45.817Z,13.00
2018-06-29T04:52:14.332Z,13.00
2018-06-29T04:54:42.816Z,13.10
2018-06-29T04:57:11.371Z,13.10
2018-06-29T04:59:39.937Z,13.20
2018-06-29T05:04:36.725Z,13.30
2018-06-29T05:07:05.378Z,13.40
2018-06-29T05:12:02.268Z,13.50
2018-06-29T05:14:30.872Z,13.60
2018-06-29T05:16:59.421Z,13.70
2018-06-29T05:19:27.996Z,13.80
2018-06-29T05:21:56.493Z,13.80
2018-06-29T05:24:25.168Z,13.90
2018-06-29T05:26:53.709Z,14.00
2018-06-29T05:29:22.507Z,14.00
2018-06-29T05:31:51.066Z,14.10
2018-06-29T05:34:19.577Z,14.10
2018-06-29T05:36:48.141Z,14.20
2018-06-29T05:39:16.662Z,14.20
2018-06-29T05:41:45.296Z,14.30
2018-06-29T05:44:13.757Z,14.40
2018-06-29T05:46:42.553Z,14.50
2018-06-29T05:49:11.048Z,14.60
2018-06-29T05:51:39.572Z,14.70
2018-06-29T05:54:08.151Z,14.80
2018-06-29T05:56:36.733Z,14.90
2018-06-29T05:59:05.327Z,15.00
2018-06-29T06:01:33.936Z,15.10
2018-06-29T06:04:02.519Z,15.20
2018-06-29T06:06:31.081Z,15.40
2018-06-29T06:08:59.580Z,15.50
2018-06-29T06:11:28.145Z,15.50
2018-06-29T06:13:56.629Z,15.70
2018-06-29T06:16:25.267Z,15.80
2018-06-29T06:21:01.981Z,16.00
2018-06-29T06:23:30.552Z,16.10
2018-06-29T06:25:59.114Z,16.40
2018-06-29T06:28:27.681Z,16.50
2018-06-29T06:30:56.249Z,16.70
2018-06-29T06:33:24.787Z,16.80
2018-06-29T06:35:53.342Z,16.90
2018-06-29T06:38:21.930Z,17.00
2018-06-29T06:40:50.456Z,17.10
2018-06-29T06:43:18.993Z,17.30
2018-06-29T06:45:47.581Z,17.40
2018-06-29T06:48:16.128Z,17.50
2018-06-29T06:50:44.681Z,17.60
2018-06-29T06:53:13.192Z,17.60
2018-06-29T06:55:41.796Z,17.70
2018-06-29T07:00:38.565Z,17.70
2018-06-29T07:03:07.136Z,17.80
2018-06-29T07:05:35.708Z,17.90
2018-06-29T07:08:04.335Z,17.90
2018-06-29T07:10:32.860Z,18.00
2018-06-29T07:13:01.421Z,18.20
2018-06-29T07:15:30.047Z,18.30
2018-06-29T07:17:58.810Z,18.40
2018-06-29T07:20:27.325Z,18.60
2018-06-29T07:22:55.881Z,18.70
2018-06-29T07:25:24.383Z,18.80
2018-06-29T07:27:52.971Z,18.80
2018-06-29T07:30:21.648Z,18.90
2018-06-29T07:32:50.195Z,19.00
2018-06-29T07:35:18.749Z,19.20
2018-06-29T07:37:47.292Z,19.30
2018-06-29T07:40:15.843Z,19.40
2018-06-29T07:42:44.341Z,19.50
2018-06-29T07:45:12.920Z,19.60
2018-06-29T07:47:41.459Z,19.70
2018-06-29T07:50:10.015Z,19.80
2018-06-29T07:52:38.559Z,19.80
2018-06-29T07:55:07.752Z,19.80
2018-06-29T07:57:36.279Z,19.90
2018-06-29T08:00:05.208Z,20.00
2018-06-29T08:02:35.121Z,20.00
2018-06-29T08:05:03.809Z,20.10
2018-06-29T08:07:33.817Z,20.20
2018-06-29T08:10:03.383Z,20.10
2018-06-29T08:12:32.053Z,20.20
2018-06-29T08:15:00.641Z,20.30
2018-06-29T08:17:29.135Z,20.40
2018-06-29T08:19:57.664Z,20.50
2018-06-29T08:22:26.173Z,20.50
2018-06-29T08:25:05.289Z,20.60
2018-06-29T08:27:33.816Z,20.60
2018-06-29T08:30:02.790Z,20.80
2018-06-29T08:32:31.348Z,20.90
2018-06-29T08:34:59.902Z,21.00
2018-06-29T08:37:28.420Z,21.20
2018-06-29T08:39:56.970Z,21.30
2018-06-29T08:42:25.660Z,21.30
2018-06-29T08:44:54.173Z,21.30
2018-06-29T08:47:22.786Z,21.30
2018-06-29T08:49:51.382Z,21.40
2018-06-29T08:52:19.948Z,21.50
2018-06-29T08:54:48.519Z,21.60
2018-06-29T08:57:17.145Z,21.70
2018-06-29T08:59:45.686Z,21.80
2018-06-29T09:02:14.206Z,22.00
2018-06-29T09:04:42.704Z,22.30
2018-06-29T09:07:11.389Z,22.40
2018-06-29T09:09:39.976Z,22.50
2018-06-29T09:12:08.560Z,22.50
2018-06-29T09:14:37.046Z,22.50
2018-06-29T09:17:05.677Z,22.50
2018-06-29T09:19:34.286Z,22.50
2018-06-29T09:22:02.812Z,22.60
2018-06-29T09:24:31.312Z,22.60
2018-06-29T09:26:59.886Z,22.70
2018-06-29T09:29:28.407Z,22.70
2018-06-29T09:31:56.958Z,22.80
2018-06-29T09:34:25.520Z,22.80
2018-06-29T09:36:54.114Z,22.70
2018-06-29T09:41:50.998Z,23.10
2018-06-29T09:44:19.573Z,23.20
2018-06-29T09:46:48.395Z,23.30
2018-06-29T09:49:16.923Z,23.20
2018-06-29T09:51:45.409Z,23.30
2018-06-29T09:54:13.933Z,23.20
2018-06-29T09:56:42.483Z,23.20
2018-06-29T09:59:11.018Z,23.20
2018-06-29T10:01:40.144Z,23.20
2018-06-29T10:04:08.697Z,23.30
2018-06-29T10:06:37.200Z,23.40
2018-06-29T10:09:07.947Z,23.40
2018-06-29T10:11:36.600Z,23.40
2018-06-29T10:14:05.340Z,23.40
2018-06-29T10:16:33.893Z,23.40
2018-06-29T10:19:02.520Z,23.60
2018-06-29T10:21:31.020Z,23.60
2018-06-29T10:24:01.089Z,23.70
2018-06-29T10:26:29.736Z,23.60
2018-06-29T10:28:58.301Z,23.70
2018-06-29T10:31:26.821Z,23.70
2018-06-29T10:33:55.381Z,23.50
2018-06-29T10:36:23.966Z,23.50
2018-06-29T10:38:52.503Z,23.50
2018-06-29T10:41:21.152Z,23.60
2018-06-29T10:43:49.656Z,23.70
2018-06-29T10:46:18.277Z,23.70
2018-06-29T10:48:46.828Z,23.80
2018-06-29T10:51:15.364Z,23.90
2018-06-29T10:53:43.872Z,23.80
2018-06-29T10:56:12.475Z,23.50
2018-06-29T10:58:41.009Z,23.50
2018-06-29T11:01:09.610Z,23.70
2018-06-29T11:03:38.181Z,23.70
2018-06-29T11:06:06.722Z,23.70
2018-06-29T11:08:35.277Z,23.70
2018-06-29T11:11:05.526Z,23.80
2018-06-29T11:13:34.117Z,23.80
2018-06-29T11:18:30.906Z,23.50
2018-06-29T11:20:59.404Z,23.40
2018-06-29T11:23:28.001Z,23.50
2018-06-29T11:25:56.507Z,23.70
2018-06-29T11:28:25.056Z,23.90
2018-06-29T11:30:53.624Z,24.20
2018-06-29T11:33:22.129Z,24.10
2018-06-29T11:35:50.668Z,24.10
2018-06-29T11:38:19.192Z,24.30
2018-06-29T11:40:47.769Z,24.20
2018-06-29T11:43:16.339Z,24.30
2018-06-29T11:45:44.909Z,24.20
2018-06-29T11:48:13.465Z,24.20
2018-06-29T11:50:42.046Z,24.20
2018-06-29T11:53:11.275Z,24.10
2018-06-29T11:55:40.629Z,24.00
2018-06-29T11:58:09.174Z,24.00
2018-06-29T12:00:37.874Z,24.00
2018-06-29T12:03:06.376Z,23.90
2018-06-29T12:05:34.876Z,23.90
2018-06-29T12:08:03.475Z,24.00
2018-06-29T12:10:32.002Z,24.10
2018-06-29T12:13:00.524Z,23.80
2018-06-29T12:15:29.132Z,23.70
2018-06-29T12:20:25.889Z,23.90
2018-06-29T12:22:54.399Z,24.20
2018-06-29T12:25:22.947Z,24.30
2018-06-29T12:27:51.462Z,24.30
2018-06-29T12:30:20.031Z,24.40
2018-06-29T12:35:16.801Z,24.60
2018-06-29T12:37:45.322Z,24.50
2018-06-29T12:40:13.944Z,24.60
2018-06-29T12:42:42.480Z,24.70
2018-06-29T12:45:11.078Z,24.80
2018-06-29T12:47:40.620Z,24.80
2018-06-29T12:50:11.717Z,24.80
2018-06-29T12:52:41.882Z,24.80
2018-06-29T12:57:41.693Z,24.80
2018-06-29T13:00:11.773Z,25.00
2018-06-29T13:02:42.548Z,24.90
2018-06-29T13:05:12.742Z,24.80
2018-06-29T13:07:43.860Z,24.60
2018-06-29T13:10:16.506Z,24.70
2018-06-29T13:12:47.993Z,24.70
2018-06-29T13:15:18.970Z,24.60
2018-06-29T13:17:49.295Z,24.50
2018-06-29T13:20:19.662Z,24.50
2018-06-29T13:22:54.143Z,24.60
2018-06-29T13:25:28.196Z,24.70
2018-06-29T13:28:02.146Z,24.80
2018-06-29T13:30:34.441Z,24.90
2018-06-29T13:33:06.920Z,25.20
2018-06-29T13:35:38.569Z,25.60
2018-06-29T13:40:43.074Z,25.60
2018-06-29T13:43:14.537Z,25.80
2018-06-29T13:45:46.360Z,26.00
2018-06-29T13:48:16.475Z,26.00
2018-06-29T13:50:46.683Z,25.90
2018-06-29T13:53:17.474Z,25.80
2018-06-29T13:55:47.452Z,26.00
2018-06-29T13:58:18.359Z,26.00
2018-06-29T14:03:16.263Z,26.10
2018-06-29T14:05:44.783Z,25.80
2018-06-29T14:10:41.532Z,26.10
2018-06-29T14:15:38.305Z,26.20
2018-06-29T14:20:35.200Z,26.10
2018-06-29T14:23:03.749Z,26.40
2018-06-29T14:28:00.768Z,26.60
2018-06-29T14:30:29.336Z,26.70
2018-06-29T14:32:57.985Z,26.90
2018-06-29T14:35:26.573Z,27.00
2018-06-29T14:40:23.352Z,27.20
2018-06-29T14:42:52.009Z,27.00
2018-06-29T14:47:48.773Z,26.90
2018-06-29T14:50:17.304Z,27.00
2018-06-29T14:52:45.865Z,27.10
2018-06-29T14:55:14.398Z,26.90
2018-06-29T14:57:42.966Z,26.80
2018-06-29T15:00:11.958Z,26.30
2018-06-29T15:02:41.197Z,26.20
2018-06-29T15:07:38.845Z,26.60
2018-06-29T15:10:07.547Z,26.80
2018-06-29T15:12:36.117Z,26.60
2018-06-29T15:15:04.794Z,26.30
2018-06-29T15:17:33.518Z,26.20
2018-06-29T15:20:02.102Z,26.20
2018-06-29T15:22:30.637Z,26.00
2018-06-29T15:24:59.428Z,26.00
2018-06-29T15:27:28.143Z,25.90
2018-06-29T15:29:56.742Z,25.90
2018-06-29T15:34:53.475Z,26.20
2018-06-29T15:37:21.974Z,26.30
2018-06-29T15:39:50.569Z,26.60
2018-06-29T15:42:19.019Z,26.90
2018-06-29T15:44:47.580Z,27.10
2018-06-29T15:47:16.096Z,27.50
2018-06-29T15:49:44.622Z,27.50
2018-06-29T15:52:13.151Z,27.50
2018-06-29T15:54:41.627Z,27.30
2018-06-29T15:57:10.141Z,26.70
2018-06-29T15:59:38.626Z,26.70
2018-06-29T16:02:07.135Z,27.00
2018-06-29T16:04:35.623Z,27.30
2018-06-29T16:07:04.203Z,27.70
2018-06-29T16:09:32.683Z,27.60
2018-06-29T16:12:01.231Z,27.40
2018-06-29T16:14:29.688Z,27.50
2018-06-29T16:16:58.207Z,27.70
2018-06-29T16:19:26.720Z,27.90
2018-06-29T16:21:55.256Z,28.10
2018-06-29T16:24:23.877Z,28.10
2018-06-29T16:26:52.732Z,27.70
2018-06-29T16:29:21.424Z,27.50
2018-06-29T16:31:49.955Z,27.00
2018-06-29T16:34:18.485Z,26.80
2018-06-29T16:36:46.943Z,27.10
2018-06-29T16:39:15.491Z,27.10
2018-06-29T16:41:43.963Z,27.30
2018-06-29T16:44:12.459Z,27.40
2018-06-29T16:46:40.964Z,26.90
2018-06-29T16:49:09.483Z,26.80
2018-06-29T16:51:40.729Z,26.90
2018-06-29T16:54:09.315Z,27.30
2018-06-29T16:56:37.795Z,27.50
2018-06-29T16:59:06.319Z,27.60
2018-06-29T17:01:34.793Z,27.80
2018-06-29T17:06:31.518Z,27.90
2018-06-29T17:08:59.996Z,28.00
2018-06-29T17:11:28.795Z,28.00
2018-06-29T17:13:57.335Z,28.00
2018-06-29T17:16:26.259Z,27.40
2018-06-29T17:18:54.891Z,27.40
2018-06-29T17:21:23.301Z,27.50
2018-06-29T17:23:51.796Z,27.30
2018-06-29T17:26:20.317Z,27.20
2018-06-29T17:28:48.894Z,27.10
2018-06-29T17:31:17.377Z,26.90
2018-06-29T17:33:45.925Z,27.00
2018-06-29T17:36:14.439Z,27.00
2018-06-29T17:38:42.942Z,26.90
2018-06-29T17:41:11.456Z,27.30
2018-06-29T17:43:40.503Z,27.40
2018-06-29T17:46:09.105Z,27.30
2018-06-29T17:48:37.614Z,27.10
2018-06-29T17:51:06.382Z,27.20
2018-06-29T17:53:34.918Z,27.20
2018-06-29T17:56:03.575Z,26.70
2018-06-29T17:58:32.152Z,26.30
2018-06-29T18:03:28.798Z,26.30
2018-06-29T18:05:59.355Z,26.50
2018-06-29T18:08:29.436Z,26.50
2018-06-29T18:15:54.499Z,26.20
2018-06-29T18:18:23.024Z,26.00
2018-06-29T18:20:51.512Z,26.00
2018-06-29T18:23:20.120Z,25.90
2018-06-29T18:25:48.641Z,25.80
2018-06-29T18:28:17.161Z,25.80
2018-06-29T18:30:45.719Z,25.80
2018-06-29T18:33:17.976Z,25.60
2018-06-29T18:35:49.260Z,25.60
2018-06-29T18:38:17.776Z,25.50
2018-06-29T18:40:46.330Z,25.30
2018-06-29T18:43:14.833Z,25.10
2018-06-29T18:45:43.329Z,24.50
2018-06-29T18:48:11.825Z,23.80
2018-06-29T18:50:40.327Z,23.20
2018-06-29T18:53:08.851Z,22.60
2018-06-29T18:55:37.387Z,22.00
2018-06-29T18:58:06.181Z,21.50
2018-06-29T19:00:39.171Z,21.10
2018-06-29T19:03:07.736Z,20.70
2018-06-29T19:05:36.209Z,20.70
2018-06-29T19:08:04.731Z,20.90
2018-06-29T19:10:33.164Z,21.10
2018-06-29T19:13:01.681Z,21.20
2018-06-29T19:15:30.133Z,21.00
2018-06-29T19:17:58.602Z,20.50
2018-06-29T19:20:27.136Z,20.00
2018-06-29T19:22:55.576Z,19.50
2018-06-29T19:25:24.200Z,19.20
2018-06-29T19:27:52.761Z,18.90
2018-06-29T19:30:21.279Z,18.70
2018-06-29T19:32:49.896Z,18.50
2018-06-29T19:35:18.372Z,18.30
2018-06-29T19:37:47.248Z,18.10
2018-06-29T19:40:15.792Z,17.90
2018-06-29T19:42:44.239Z,17.80
2018-06-29T19:45:12.809Z,17.70
2018-06-29T19:47:41.331Z,17.50
2018-06-29T19:50:09.911Z,17.40
2018-06-29T19:52:38.452Z,17.30
2018-06-29T19:55:06.970Z,17.20
2018-06-29T19:57:35.546Z,17.10
2018-06-29T20:00:04.185Z,17.00
2018-06-29T20:02:32.718Z,16.90
2018-06-29T20:05:01.271Z,16.80
2018-06-29T20:07:29.769Z,16.70
2018-06-29T20:09:58.318Z,16.60
2018-06-29T20:12:26.822Z,16.40
2018-06-29T20:14:55.338Z,16.30
2018-06-29T20:17:23.876Z,16.30
2018-06-29T20:19:52.366Z,16.20
2018-06-29T20:22:20.907Z,16.00
2018-06-29T20:24:49.362Z,16.00
2018-06-29T20:27:17.845Z,15.90
2018-06-29T20:29:46.346Z,15.80
2018-06-29T20:32:14.866Z,15.70
2018-06-29T20:34:43.417Z,15.60
2018-06-29T20:37:11.925Z,15.60
2018-06-29T20:39:40.468Z,15.50
2018-06-29T20:42:09.061Z,15.50
2018-06-29T20:44:37.579Z,15.40
2018-06-29T20:47:06.067Z,15.30
2018-06-29T20:49:34.617Z,15.30
2018-06-29T20:52:03.089Z,15.20
2018-06-29T20:54:31.605Z,15.20
2018-06-29T20:57:00.124Z,15.10
2018-06-29T20:59:28.633Z,15.00
2018-06-29T21:01:57.128Z,15.00
2018-06-29T21:04:25.605Z,14.90
2018-06-29T21:06:54.106Z,14.90
2018-06-29T21:09:22.548Z,14.80
2018-06-29T21:11:51.011Z,14.80
2018-06-29T21:14:19.520Z,14.80
2018-06-29T21:16:47.970Z,14.70
2018-06-29T21:21:44.642Z,14.70
2018-06-29T21:24:13.184Z,14.60
2018-06-29T21:26:41.671Z,14.50
2018-06-29T21:29:10.135Z,14.40
2018-06-29T21:31:38.607Z,14.40
2018-06-29T21:34:07.107Z,14.30
2018-06-29T21:36:35.579Z,14.20
2018-06-29T21:39:06.990Z,14.20
2018-06-29T21:41:35.517Z,14.20
2018-06-29T21:44:04.131Z,14.10
2018-06-29T21:46:32.811Z,14.10
2018-06-29T21:49:01.439Z,14.10
2018-06-29T21:51:30.004Z,14.00
2018-06-29T21:53:58.598Z,14.00
2018-06-29T21:56:27.112Z,13.90
2018-06-29T21:58:56.468Z,13.90
2018-06-29T22:01:25.036Z,13.90
2018-06-29T22:03:54.051Z,13.80
2018-06-29T22:08:51.040Z,13.90
2018-06-29T22:11:20.018Z,14.00
2018-06-29T22:13:48.508Z,13.90
2018-06-29T22:16:17.036Z,13.90
2018-06-29T22:18:45.583Z,13.80
2018-06-29T22:21:14.168Z,13.70
2018-06-29T22:23:42.756Z,13.70
2018-06-29T22:26:11.241Z,13.80
2018-06-29T22:28:39.930Z,13.80
2018-06-29T22:31:08.408Z,13.80
2018-06-29T22:33:36.956Z,13.80
2018-06-29T22:38:33.687Z,13.90
2018-06-29T22:41:02.185Z,13.90
2018-06-29T22:43:30.729Z,13.90
2018-06-29T22:45:59.286Z,13.90
2018-06-29T22:48:27.816Z,14.00
2018-06-29T22:50:56.946Z,14.00
2018-06-29T22:53:25.469Z,14.00
2018-06-29T22:55:56.715Z,14.00
2018-06-29T22:58:25.272Z,14.10
2018-06-29T23:00:54.035Z,14.10
2018-06-29T23:03:23.720Z,14.20
2018-06-29T23:05:52.861Z,14.20
2018-06-29T23:08:21.325Z,14.20
2018-06-29T23:10:49.832Z,14.20
2018-06-29T23:13:18.693Z,14.20
2018-06-29T23:15:48.499Z,14.10
2018-06-29T23:18:16.978Z,14.00
2018-06-29T23:20:46.003Z,14.00
2018-06-29T23:23:14.508Z,13.90
2018-06-29T23:25:43.253Z,13.90
2018-06-29T23:28:11.699Z,14.00
2018-06-29T23:30:40.358Z,14.00
2018-06-29T23:33:08.846Z,14.00
2018-06-29T23:35:37.332Z,14.10
2018-06-29T23:38:06.132Z,14.10
2018-06-29T23:40:34.631Z,14.10
2018-06-29T23:43:03.078Z,14.10
2018-06-29T23:45:31.654Z,14.20
2018-06-29T23:48:00.088Z,14.20
2018-06-29T23:50:28.566Z,14.20
2018-06-29T23:52:57.066Z,14.30
2018-06-29T23:55:25.577Z,14.40
2018-06-29T23:57:54.043Z,14.30
